Time;durP1;ratioP1;P1;durP2;ratioP2;P2;SDS_P1;SDS_P2;PMS_P1;PMS_P2;Temp;Humidity;BMP_temperature;BMP_pressure;BME280_temperature;BME280_humidity;BME280_pressure;Samples;Min_cycle;Max_cycle;Signal;HPM_P1;HPM_P2
2023/02/25 00:00:58;;;;;;;;;;;;;;;4.85;nan;99441.81;4947162;28;19962;-85
2023/02/25 00:06:44;;;;;;;;;;;;;;;4.86;nan;99455.75;4951766;28;19946;-85
2023/02/25 00:09:45;;;;;;;;;;;;;;;4.86;nan;99456.59;4966623;28;19926;-85
2023/02/25 00:15:34;;;;;;;;;;;;;;;4.82;nan;99455.22;4979111;28;20135;-85
2023/02/25 00:18:24;;;;;;;;;;;;;;;4.80;nan;99457.16;4977341;28;19921;-85
2023/02/25 00:24:20;;;;;;;;;;;;;;;4.71;nan;99459.78;4893956;29;19991;-85
2023/02/25 00:27:06;;;;;;;;;;;;;;;4.71;nan;99465.03;4883936;29;20636;-85
2023/02/25 00:30:12;;;;;;;;;;;;;;;4.70;nan;99463.38;4849124;29;19919;-85
2023/02/25 00:32:57;;;;;;;;;;;;;;;4.65;nan;99462.00;4872989;29;19919;-85
2023/02/25 00:35:46;;;;;;;;;;;;;;;4.64;nan;99467.38;4903987;28;19930;-85
2023/02/25 00:38:36;;;;;;;;;;;;;;;4.61;nan;99467.66;4973219;28;19918;-86
2023/02/25 00:41:10;;;;;;;;;;;;;;;4.65;nan;99464.63;4978208;28;19976;-85
2023/02/25 00:44:02;;;;;;;;;;;;;;;4.62;nan;99466.69;4933365;28;19970;-85
2023/02/25 00:46:30;;;;;;;;;;;;;;;4.64;nan;99478.66;4953924;28;19981;-85
2023/02/25 00:48:56;;;;;;;;;;;;;;;4.65;nan;99471.66;4972219;28;19990;-86
2023/02/25 00:51:23;;;;;;;;;;;;;;;4.65;nan;99476.91;4964826;28;19929;-86
2023/02/25 00:53:52;;;;;;;;;;;;;;;4.68;nan;99472.19;4959070;28;19926;-86
2023/02/25 00:56:25;;;;;;;;;;;;;;;4.67;nan;99475.78;4950611;28;20009;-86
2023/02/25 00:58:51;;;;;;;;;;;;;;;4.68;nan;99484.47;4959580;28;20061;-85
2023/02/25 01:01:44;;;;;;;;;;;;;;;4.69;nan;99480.88;4946023;28;19977;-86
2023/02/25 01:04:23;;;;;;;;;;;;;;;4.73;nan;99484.88;4947794;28;20076;-86
2023/02/25 01:09:59;;;;;;;;;;;;;;;4.66;nan;99489.00;4962077;28;19925;-85
2023/02/25 01:12:50;;;;;;;;;;;;;;;4.62;nan;99492.88;4933648;28;20609;-85
2023/02/25 01:15:18;;;;;;;;;;;;;;;4.56;nan;99493.44;4951551;28;19922;-85
2023/02/25 01:17:46;;;;;;;;;;;;;;;4.49;nan;99502.81;4966130;28;19925;-85
2023/02/25 01:20:18;;;;;;;;;;;;;;;4.42;nan;99498.09;4952427;28;20360;-85
2023/02/25 01:23:00;;;;;;;;;;;;;;;4.39;nan;99493.16;4957138;28;19924;-85
2023/02/25 01:25:58;;;;;;;;;;;;;;;4.37;nan;99505.53;4955603;28;20479;-85
2023/02/25 01:28:27;;;;;;;;;;;;;;;4.32;nan;99488.63;4938073;28;19982;-86
2023/02/25 01:31:15;;;;;;;;;;;;;;;4.27;nan;99496.88;4953395;28;19999;-86
2023/02/25 01:37:08;;;;;;;;;;;;;;;;;;;;;
2023/02/25 01:39:34;;;;;;;;;;;;;;;4.14;nan;99493.69;4960130;28;20393;-86
2023/02/25 01:42:31;;;;;;;;;;;;;;;;;;;;;
2023/02/25 01:45:16;;;;;;;;;;;;;;;4.07;nan;99492.56;4970677;28;21582;-87
2023/02/25 01:47:56;;;;;;;;;;;;;;;4.00;nan;99479.19;4966563;28;19925;-87
2023/02/25 01:50:26;;;;;;;;;;;;;;;3.95;nan;99489.25;4948950;28;19926;-86
2023/02/25 01:53:11;;;;;;;;;;;;;;;3.94;nan;99488.41;4956605;28;19918;-86
2023/02/25 01:55:43;;;;;;;;;;;;;;;3.95;nan;99486.63;4958514;28;20084;-87
2023/02/25 01:58:31;;;;;;;;;;;;;;;3.96;nan;99481.28;4948053;28;20193;-87
2023/02/25 02:01:26;;;;;;;;;;;;;;;3.98;nan;99492.44;4957976;28;20272;-86
2023/02/25 02:04:29;;;;;;;;;;;;;;;4.01;nan;99492.16;4939757;28;19918;-84
2023/02/25 02:07:24;;;;;;;;;;;;;;;;;;;;;
2023/02/25 02:10:01;;;;;;;;;;;;;;;4.03;nan;99492.03;4980916;28;19940;-84
2023/02/25 02:12:44;;;;;;;;;;;;;;;4.02;nan;99488.56;4944654;28;20005;-84
2023/02/25 02:15:11;;;;;;;;;;;;;;;4.04;nan;99493.66;4958519;28;20012;-84
2023/02/25 02:18:07;;;;;;;;;;;;;;;4.04;nan;99486.63;4987659;28;19922;-84
2023/02/25 02:20:59;;;;;;;;;;;;;;;4.04;nan;99494.50;4947798;28;19921;-85
2023/02/25 02:23:43;;;;;;;;;;;;;;;4.05;nan;99490.06;4952570;28;20033;-84
2023/02/25 02:26:38;;;;;;;;;;;;;;;4.05;nan;99487.47;4958856;28;19921;-84
2023/02/25 02:29:23;;;;;;;;;;;;;;;4.03;nan;99492.84;4965478;28;19926;-85
2023/02/25 02:32:31;;;;;;;;;;;;;;;;;;;;;
2023/02/25 02:34:46;;;;;;;;;;;;;;;4.03;nan;99492.03;4968739;28;19945;-84
2023/02/25 02:37:32;;;;;;;;;;;;;;;4.02;nan;99485.94;4948330;28;19976;-85
2023/02/25 02:43:35;;;;;;;;;;;;;;;;;;;;;
2023/02/25 02:46:24;;;;;;;;;;;;;;;3.93;nan;99481.56;4908297;28;20253;-86
2023/02/25 02:49:13;;;;;;;;;;;;;;;3.91;nan;99493.06;4924381;28;19921;-85
2023/02/25 02:52:15;;;;;;;;;;;;;;;3.85;nan;99489.22;4956059;28;19922;-87
2023/02/25 02:55:20;;;;;;;;;;;;;;;3.83;nan;99499.00;4953979;28;19964;-86
2023/02/25 02:57:56;;;;;;;;;;;;;;;3.83;nan;99501.59;4957676;28;19918;-86
2023/02/25 03:00:51;;;;;;;;;;;;;;;3.86;nan;99506.56;4955257;28;20066;-86
2023/02/25 03:03:49;;;;;;;;;;;;;;;3.87;nan;99510.03;4946676;28;19929;-86
2023/02/25 03:16:20;;;;;;;;;;;;;;;3.81;nan;99520.06;4961360;28;19922;-86
2023/02/25 03:18:46;;;;;;;;;;;;;;;3.83;nan;99512.06;4936299;28;19989;-86
2023/02/25 03:24:27;;;;;;;;;;;;;;;3.80;nan;99515.78;4966114;28;19937;-86
2023/02/25 03:30:54;;;;;;;;;;;;;;;3.75;nan;99509.31;4851732;29;19927;-87
2023/02/25 03:33:39;;;;;;;;;;;;;;;;;;;;;
2023/02/25 03:36:29;;;;;;;;;;;;;;;3.76;nan;99521.41;4863703;29;19920;-86
2023/02/25 03:38:59;;;;;;;;;;;;;;;3.81;nan;99520.06;4874986;29;19919;-87
2023/02/25 03:41:53;;;;;;;;;;;;;;;3.84;nan;99513.72;4876418;29;20060;-86
2023/02/25 03:44:25;;;;;;;;;;;;;;;3.81;nan;99519.22;4859825;29;19924;-86
2023/02/25 03:46:58;;;;;;;;;;;;;;;3.82;nan;99520.88;4891154;28;19919;-85
2023/02/25 03:49:48;;;;;;;;;;;;;;;3.84;nan;99526.81;4946272;28;19925;-85
2023/02/25 03:52:28;;;;;;;;;;;;;;;3.86;nan;99517.00;4951112;28;19918;-85
2023/02/25 03:54:59;;;;;;;;;;;;;;;3.88;nan;99524.75;4960054;28;19968;-85
2023/02/25 03:57:38;;;;;;;;;;;;;;;3.88;nan;99525.56;4960666;28;19922;-84
2023/02/25 04:00:17;;;;;;;;;;;;;;;3.87;nan;99526.53;4945963;28;19930;-85
2023/02/25 04:02:48;;;;;;;;;;;;;;;3.88;nan;99525.56;4961666;28;19964;-85
2023/02/25 04:05:49;;;;;;;;;;;;;;;3.89;nan;99527.22;4951528;28;19981;-84
2023/02/25 04:08:44;;;;;;;;;;;;;;;3.91;nan;99525.31;4971511;28;19918;-85
2023/02/25 04:11:34;;;;;;;;;;;;;;;3.93;nan;99533.84;4978798;28;19924;-85
2023/02/25 04:17:43;;;;;;;;;;;;;;;;;;;;;
2023/02/25 04:20:38;;;;;;;;;;;;;;;;;;;;;
2023/02/25 04:23:16;;;;;;;;;;;;;;;3.98;nan;99549.13;4992746;28;19914;-85
2023/02/25 04:26:24;;;;;;;;;;;;;;;;;;;;;
2023/02/25 04:29:08;;;;;;;;;;;;;;;;;;;;;
2023/02/25 04:31:47;;;;;;;;;;;;;;;4.02;nan;99540.88;4961311;28;20279;-84
2023/02/25 04:34:34;;;;;;;;;;;;;;;;;;;;;
2023/02/25 04:37:16;;;;;;;;;;;;;;;;;;;;;
2023/02/25 04:39:47;;;;;;;;;;;;;;;4.11;nan;99546.28;4971404;28;19917;-84
2023/02/25 04:46:12;;;;;;;;;;;;;;;;;;;;;
2023/02/25 04:49:08;;;;;;;;;;;;;;;;;;;;;
2023/02/25 04:51:55;;;;;;;;;;;;;;;4.18;nan;99563.91;4961551;28;19983;-84
2023/02/25 05:01:20;;;;;;;;;;;;;;;;;;;;;
2023/02/25 05:04:16;;;;;;;;;;;;;;;4.13;nan;99552.22;4795045;29;19947;-86
2023/02/25 05:10:33;;;;;;;;;;;;;;;;;;;;;
2023/02/25 05:19:51;;;;;;;;;;;;;;;4.03;nan;99545.16;4901675;29;19933;-86
2023/02/25 05:22:53;;;;;;;;;;;;;;;4.03;nan;99544.34;4922132;28;19981;-85
2023/02/25 05:25:57;;;;;;;;;;;;;;;4.01;nan;99544.47;4955059;28;20000;-85
2023/02/25 05:31:42;;;;;;;;;;;;;;;4.04;nan;99549.41;4892160;29;19916;-84
2023/02/25 05:34:22;;;;;;;;;;;;;;;4.06;nan;99543.25;4891787;29;19923;-84
2023/02/25 05:37:19;;;;;;;;;;;;;;;4.06;nan;99551.09;4894263;29;19955;-84
2023/02/25 05:40:16;;;;;;;;;;;;;;;;;;;;;
2023/02/25 06:02:31;;;;;;;;;;;;;;;;;;;;;
2023/02/25 06:05:29;;;;;;;;;;;;;;;4.01;nan;99557.53;4797996;29;20933;-85
2023/02/25 06:12:11;;;;;;;;;;;;;;;;;;;;;
2023/02/25 06:15:09;;;;;;;;;;;;;;;;;;;;;
2023/02/25 06:18:11;;;;;;;;;;;;;;;4.04;nan;99553.84;4836737;29;19920;-85
2023/02/25 06:24:19;;;;;;;;;;;;;;;;;;;;;
2023/02/25 06:27:02;;;;;;;;;;;;;;;4.02;nan;99564.41;4877206;29;20656;-85
2023/02/25 06:29:45;;;;;;;;;;;;;;;4.07;nan;99571.06;4865381;29;19935;-85
2023/02/25 06:32:20;;;;;;;;;;;;;;;4.08;nan;99570.94;4810746;29;20015;-85
2023/02/25 06:38:30;;;;;;;;;;;;;;;4.06;nan;99585.91;4882710;29;20014;-85
2023/02/25 06:41:23;;;;;;;;;;;;;;;4.06;nan;99566.78;4851102;29;19920;-85
2023/02/25 06:47:31;;;;;;;;;;;;;;;;;;;;;
2023/02/25 07:08:23;;;;;;;;;;;;;;;4.32;nan;99606.38;4994055;28;19928;-85
2023/02/25 07:11:32;;;;;;;;;;;;;;;;;;;;;
2023/02/25 07:14:03;;;;;;;;;;;;;;;4.40;nan;99601.28;5013618;28;19917;-86
2023/02/25 07:17:01;;;;;;;;;;;;;;;4.42;nan;99608.03;4966828;28;19926;-86
2023/02/25 07:23:03;;;;;;;;;;;;;;;4.52;nan;99617.72;4920174;29;19919;-86
2023/02/25 07:28:57;;;;;;;;;;;;;;;4.58;nan;99627.66;4963503;28;20009;-85
2023/02/25 07:31:23;;;;;;;;;;;;;;;4.59;nan;99622.25;4978465;28;19975;-88
2023/02/25 07:33:48;;;;;;;;;;;;;;;4.61;nan;99622.97;4998899;28;19922;-85
2023/02/25 07:36:14;;;;;;;;;;;;;;;4.62;nan;99626.41;4993114;28;20408;-84
2023/02/25 07:38:40;;;;;;;;;;;;;;;4.66;nan;99636.47;4991677;28;20227;-85
2023/02/25 07:41:06;;;;;;;;;;;;;;;4.73;nan;99622.84;4988916;28;19913;-85
2023/02/25 07:43:31;;;;;;;;;;;;;;;4.78;nan;99623.25;4994353;28;19981;-85
2023/02/25 07:45:57;;;;;;;;;;;;;;;4.83;nan;99624.50;4993504;28;19920;-85
2023/02/25 07:48:22;;;;;;;;;;;;;;;4.92;nan;99629.88;5004639;28;20302;-85
2023/02/25 07:50:47;;;;;;;;;;;;;;;5.01;nan;99631.69;5014628;28;19921;-85
2023/02/25 07:53:13;;;;;;;;;;;;;;;5.10;nan;99641.31;5014766;28;19917;-85
2023/02/25 07:55:41;;;;;;;;;;;;;;;5.14;nan;99645.31;4997385;28;19920;-85
2023/02/25 07:58:06;;;;;;;;;;;;;;;5.18;nan;99636.22;4994997;28;19928;-86
2023/02/25 08:00:31;;;;;;;;;;;;;;;5.17;nan;99645.03;4997364;28;20096;-85
2023/02/25 08:02:56;;;;;;;;;;;;;;;5.25;nan;99642.56;5016495;28;20350;-85
2023/02/25 08:05:23;;;;;;;;;;;;;;;5.35;nan;99633.88;4997105;28;20364;-85
2023/02/25 08:07:48;;;;;;;;;;;;;;;5.40;nan;99631.63;5006376;28;19917;-85
2023/02/25 08:10:13;;;;;;;;;;;;;;;5.48;nan;99632.59;4996621;28;19928;-85
2023/02/25 08:12:38;;;;;;;;;;;;;;;5.43;nan;99641.84;4995587;28;20000;-85
2023/02/25 08:15:04;;;;;;;;;;;;;;;5.29;nan;99641.31;4994628;28;19975;-85
2023/02/25 08:17:32;;;;;;;;;;;;;;;5.27;nan;99639.81;4997200;28;19922;-85
2023/02/25 08:19:57;;;;;;;;;;;;;;;5.25;nan;99647.81;4996947;28;19913;-85
2023/02/25 08:22:22;;;;;;;;;;;;;;;5.23;nan;99644.50;4992248;28;20291;-85
2023/02/25 08:24:47;;;;;;;;;;;;;;;5.23;nan;99635.81;4996687;28;20024;-85
2023/02/25 08:27:13;;;;;;;;;;;;;;;5.17;nan;99642.41;4997153;28;20382;-85
2023/02/25 08:29:38;;;;;;;;;;;;;;;5.17;nan;99639.78;4996197;28;19917;-85
2023/02/25 08:32:06;;;;;;;;;;;;;;;5.22;nan;99642.84;4995153;28;19913;-85
2023/02/25 08:34:31;;;;;;;;;;;;;;;5.07;nan;99641.59;5011463;28;19922;-85
2023/02/25 08:36:58;;;;;;;;;;;;;;;4.99;nan;99636.22;5012935;28;19917;-86
2023/02/25 08:39:23;;;;;;;;;;;;;;;4.96;nan;99634.72;5014871;28;20397;-86
2023/02/25 08:41:48;;;;;;;;;;;;;;;5.05;nan;99630.41;4996661;28;19918;-86
2023/02/25 08:44:13;;;;;;;;;;;;;;;5.01;nan;99631.69;4995330;28;20294;-86
2023/02/25 08:46:39;;;;;;;;;;;;;;;5.14;nan;99637.44;4996426;28;19917;-86
2023/02/25 08:49:05;;;;;;;;;;;;;;;5.29;nan;99633.47;5015245;28;20422;-86
2023/02/25 08:51:34;;;;;;;;;;;;;;;5.33;nan;99634.00;4997664;28;19933;-86
2023/02/25 08:54:06;;;;;;;;;;;;;;;5.35;nan;99631.25;4995475;28;20011;-86
2023/02/25 08:56:31;;;;;;;;;;;;;;;5.40;nan;99642.13;4997176;28;19913;-86
2023/02/25 08:58:57;;;;;;;;;;;;;;;5.49;nan;99633.41;4996752;28;20036;-86
2023/02/25 09:01:22;;;;;;;;;;;;;;;5.48;nan;99640.47;5014085;28;19917;-86
2023/02/25 09:03:53;;;;;;;;;;;;;;;5.46;nan;99645.03;4995318;28;19952;-86
2023/02/25 09:06:20;;;;;;;;;;;;;;;5.57;nan;99636.16;5012238;28;19924;-86
2023/02/25 09:08:45;;;;;;;;;;;;;;;5.65;nan;99644.16;5013042;28;19971;-86
2023/02/25 09:11:10;;;;;;;;;;;;;;;5.69;nan;99642.06;4995681;28;19913;-86
2023/02/25 09:13:35;;;;;;;;;;;;;;;5.66;nan;99637.09;4994606;28;20020;-86
2023/02/25 09:16:01;;;;;;;;;;;;;;;5.73;nan;99636.41;4994645;28;19917;-84
2023/02/25 09:18:26;;;;;;;;;;;;;;;5.61;nan;99648.03;4993209;28;19913;-85
2023/02/25 09:20:52;;;;;;;;;;;;;;;5.68;nan;99641.25;5013255;28;19917;-85
2023/02/25 09:23:17;;;;;;;;;;;;;;;5.72;nan;99644.38;4997558;28;20279;-87
2023/02/25 09:25:44;;;;;;;;;;;;;;;5.89;nan;99655.97;4995052;28;19925;-85
2023/02/25 09:28:09;;;;;;;;;;;;;;;5.89;nan;99648.09;4993381;28;20294;-85
2023/02/25 09:30:34;;;;;;;;;;;;;;;5.90;nan;99655.81;4994328;28;19914;-85
2023/02/25 09:32:59;;;;;;;;;;;;;;;5.91;nan;99654.84;5008868;28;19913;-85
2023/02/25 09:35:25;;;;;;;;;;;;;;;5.92;nan;99651.25;4997669;28;19921;-85
2023/02/25 09:37:50;;;;;;;;;;;;;;;5.94;nan;99644.09;4995799;28;19913;-85
2023/02/25 09:40:21;;;;;;;;;;;;;;;5.95;nan;99642.28;4995818;28;19917;-85
2023/02/25 09:43:05;;;;;;;;;;;;;;;6.06;nan;99636.06;4997337;28;20005;-85
2023/02/25 09:45:32;;;;;;;;;;;;;;;5.96;nan;99646.59;4996693;28;20004;-86
2023/02/25 09:47:59;;;;;;;;;;;;;;;5.76;nan;99645.78;4995572;28;19925;-85
2023/02/25 09:50:31;;;;;;;;;;;;;;;5.34;nan;99661.88;5003308;28;19917;-85
2023/02/25 09:53:14;;;;;;;;;;;;;;;4.96;nan;99655.66;4984579;28;19917;-84
2023/02/25 09:55:40;;;;;;;;;;;;;;;4.74;nan;99654.13;4993102;28;19945;-84
2023/02/25 09:58:12;;;;;;;;;;;;;;;4.68;nan;99654.66;4993265;28;19917;-85
2023/02/25 10:00:43;;;;;;;;;;;;;;;4.76;nan;99649.56;4991804;28;19944;-85
2023/02/25 10:03:21;;;;;;;;;;;;;;;4.82;nan;99646.41;4991854;28;20019;-86
2023/02/25 10:05:47;;;;;;;;;;;;;;;4.99;nan;99637.06;4992684;28;19917;-85
2023/02/25 10:08:21;;;;;;;;;;;;;;;5.35;nan;99636.47;4993075;28;19921;-83
2023/02/25 10:10:52;;;;;;;;;;;;;;;5.50;nan;99635.06;5015418;28;19924;-85
2023/02/25 10:13:23;;;;;;;;;;;;;;;5.31;nan;99636.78;5017899;28;19956;-85
2023/02/25 10:16:15;;;;;;;;;;;;;;;5.22;nan;99631.50;5000243;28;19913;-86
2023/02/25 10:18:44;;;;;;;;;;;;;;;4.94;nan;99641.06;4976453;28;19949;-85
2023/02/25 10:21:25;;;;;;;;;;;;;;;4.64;nan;99645.41;4999272;28;20343;-87
2023/02/25 10:23:50;;;;;;;;;;;;;;;4.43;nan;99637.66;4999125;28;19968;-86
2023/02/25 10:26:21;;;;;;;;;;;;;;;4.33;nan;99639.44;4995451;28;19913;-87
2023/02/25 10:28:51;;;;;;;;;;;;;;;4.34;nan;99635.84;4999685;28;20011;-87
2023/02/25 10:31:17;;;;;;;;;;;;;;;4.39;nan;99641.53;4994821;28;20008;-87
2023/02/25 10:33:45;;;;;;;;;;;;;;;4.52;nan;99644.72;5008716;28;19925;-86
2023/02/25 10:36:15;;;;;;;;;;;;;;;4.69;nan;99640.59;4998220;28;19913;-87
2023/02/25 10:38:51;;;;;;;;;;;;;;;4.96;nan;99637.34;5006230;28;19905;-87
2023/02/25 10:41:22;;;;;;;;;;;;;;;5.32;nan;99638.41;4994217;28;20136;-88
2023/02/25 10:43:50;;;;;;;;;;;;;;;5.66;nan;99637.94;5000797;28;20028;-88
2023/02/25 10:49:24;;;;;;;;;;;;;;;6.16;nan;99634.19;5011989;28;19932;-87
2023/02/25 10:51:59;;;;;;;;;;;;;;;6.15;nan;99643.88;5002862;28;19996;-86
2023/02/25 10:54:25;;;;;;;;;;;;;;;6.09;nan;99639.19;4999050;28;19936;-87
2023/02/25 10:57:03;;;;;;;;;;;;;;;6.10;nan;99638.25;4991341;28;19917;-86
2023/02/25 10:59:30;;;;;;;;;;;;;;;6.12;nan;99631.03;4993969;28;19921;-86
2023/02/25 11:02:02;;;;;;;;;;;;;;;6.14;nan;99634.34;5002714;28;19948;-86
2023/02/25 11:04:31;;;;;;;;;;;;;;;6.17;nan;99635.84;4991364;28;19917;-87
2023/02/25 11:06:59;;;;;;;;;;;;;;;6.06;nan;99630.81;5001421;28;19920;-86
2023/02/25 11:09:29;;;;;;;;;;;;;;;6.04;nan;99637.97;5003194;28;19921;-86
2023/02/25 11:11:57;;;;;;;;;;;;;;;5.98;nan;99634.13;4994987;28;19914;-87
2023/02/25 11:17:29;;;;;;;;;;;;;;;5.79;nan;99640.22;5021447;28;19925;-86
2023/02/25 11:19:59;;;;;;;;;;;;;;;5.71;nan;99643.56;5021231;28;19917;-86
2023/02/25 11:22:50;;;;;;;;;;;;;;;5.73;nan;99641.63;4999797;28;19952;-86
2023/02/25 11:25:17;;;;;;;;;;;;;;;5.88;nan;99641.19;4996854;28;19917;-86
2023/02/25 11:27:44;;;;;;;;;;;;;;;6.09;nan;99641.81;5002694;28;19923;-86
2023/02/25 11:30:12;;;;;;;;;;;;;;;6.38;nan;99632.97;5007788;28;20020;-86
2023/02/25 11:33:04;;;;;;;;;;;;;;;6.66;nan;99632.97;5021424;28;19917;-85
2023/02/25 11:35:34;;;;;;;;;;;;;;;7.27;nan;99644.50;5019495;28;19917;-86
2023/02/25 11:38:13;;;;;;;;;;;;;;;7.65;nan;99638.88;5003863;28;20357;-86
2023/02/25 11:40:43;;;;;;;;;;;;;;;7.65;nan;99635.41;5002307;28;19917;-85
2023/02/25 11:43:11;;;;;;;;;;;;;;;7.62;nan;99631.28;5002973;28;19917;-86
2023/02/25 11:45:38;;;;;;;;;;;;;;;7.52;nan;99632.38;5019322;28;19917;-86
2023/02/25 11:48:05;;;;;;;;;;;;;;;7.35;nan;99621.75;5010576;28;19924;-86
2023/02/25 11:50:46;;;;;;;;;;;;;;;7.30;nan;99618.75;5019561;28;19940;-85
2023/02/25 11:53:26;;;;;;;;;;;;;;;7.16;nan;99622.75;5002220;28;20008;-86
2023/02/25 11:56:04;;;;;;;;;;;;;;;7.05;nan;99630.03;5002704;28;20381;-86
2023/02/25 11:58:29;;;;;;;;;;;;;;;6.95;nan;99628.31;5002541;28;19913;-86
2023/02/25 12:01:01;;;;;;;;;;;;;;;6.95;nan;99623.03;5002003;28;19924;-85
2023/02/25 12:03:30;;;;;;;;;;;;;;;6.94;nan;99610.91;5002385;28;19967;-86
2023/02/25 12:05:58;;;;;;;;;;;;;;;7.05;nan;99617.72;4991810;28;19913;-85
2023/02/25 12:08:33;;;;;;;;;;;;;;;7.13;nan;99603.84;5006454;28;19954;-86
2023/02/25 12:11:27;;;;;;;;;;;;;;;7.22;nan;99605.53;5001371;28;19914;-86
2023/02/25 12:14:11;;;;;;;;;;;;;;;7.43;nan;99606.00;4991151;28;20390;-85
2023/02/25 12:16:46;;;;;;;;;;;;;;;7.71;nan;99603.22;5018370;28;19917;-85
2023/02/25 12:19:24;;;;;;;;;;;;;;;8.00;nan;99594.97;5019900;28;19921;-86
2023/02/25 12:22:11;;;;;;;;;;;;;;;8.15;nan;99589.09;5001970;28;19920;-85
2023/02/25 12:24:42;;;;;;;;;;;;;;;8.10;nan;99584.31;5017636;28;19984;-85
2023/02/25 12:27:11;;;;;;;;;;;;;;;7.92;nan;99584.41;5001703;28;19928;-85
2023/02/25 12:29:51;;;;;;;;;;;;;;;7.67;nan;99593.97;5002637;28;20052;-86
2023/02/25 12:32:17;;;;;;;;;;;;;;;7.54;nan;99588.34;5002874;28;20350;-85
2023/02/25 12:34:54;;;;;;;;;;;;;;;7.48;nan;99581.03;5003982;28;19926;-85
2023/02/25 12:37:19;;;;;;;;;;;;;;;7.76;nan;99585.16;5003331;28;19913;-85
2023/02/25 12:39:54;;;;;;;;;;;;;;;8.22;nan;99575.16;5003954;28;19999;-86
2023/02/25 12:42:22;;;;;;;;;;;;;;;8.61;nan;99571.97;5001966;28;20122;-85
2023/02/25 12:44:57;;;;;;;;;;;;;;;8.27;nan;99567.59;5002962;28;20150;-86
2023/02/25 12:47:36;;;;;;;;;;;;;;;8.18;nan;99568.56;5000116;28;19921;-85
2023/02/25 12:50:07;;;;;;;;;;;;;;;7.90;nan;99577.66;5003681;28;19913;-86
2023/02/25 12:52:34;;;;;;;;;;;;;;;7.60;nan;99571.91;5002158;28;19917;-86
2023/02/25 12:55:17;;;;;;;;;;;;;;;7.40;nan;99577.38;5020523;28;19918;-86
2023/02/25 12:57:54;;;;;;;;;;;;;;;7.28;nan;99578.63;5020847;28;19918;-86
2023/02/25 13:00:25;;;;;;;;;;;;;;;7.27;nan;99574.34;4998543;28;19913;-86
2023/02/25 13:03:02;;;;;;;;;;;;;;;7.32;nan;99577.34;5018128;28;19928;-86
2023/02/25 13:05:43;;;;;;;;;;;;;;;7.28;nan;99573.38;5005346;28;19964;-86
2023/02/25 13:08:26;;;;;;;;;;;;;;;7.32;nan;99574.72;5004994;28;19917;-86
2023/02/25 13:11:15;;;;;;;;;;;;;;;7.34;nan;99569.28;5019076;28;19914;-86
2023/02/25 13:13:54;;;;;;;;;;;;;;;7.41;nan;99578.22;5002962;28;19997;-86
2023/02/25 13:16:22;;;;;;;;;;;;;;;7.36;nan;99576.03;5019580;28;19975;-86
2023/02/25 13:18:51;;;;;;;;;;;;;;;7.30;nan;99575.84;5004204;28;19909;-86
2023/02/25 13:21:20;;;;;;;;;;;;;;;7.31;nan;99567.78;5023188;28;19964;-86
2023/02/25 13:24:02;;;;;;;;;;;;;;;7.15;nan;99565.91;5005285;28;19917;-85
2023/02/25 13:26:28;;;;;;;;;;;;;;;7.11;nan;99568.97;4999865;28;19945;-85
2023/02/25 13:29:09;;;;;;;;;;;;;;;6.81;nan;99600.75;5004521;28;19913;-85
2023/02/25 13:31:37;;;;;;;;;;;;;;;5.97;nan;99611.50;4998214;28;19967;-85
2023/02/25 13:34:03;;;;;;;;;;;;;;;;;;5009328;28;19925;-85
2023/02/25 13:36:38;;;;;;;;;;;;;;;4.52;nan;99617.72;4998440;28;20290;-85
2023/02/25 13:39:05;;;;;;;;;;;;;;;4.02;nan;99621.97;5016636;28;19913;-85
2023/02/25 13:41:30;;;;;;;;;;;;;;;3.92;nan;99607.22;4998902;28;19960;-86
2023/02/25 13:44:17;;;;;;;;;;;;;;;3.86;nan;99613.78;4995152;28;19917;-85
2023/02/25 13:46:42;;;;;;;;;;;;;;;4.06;nan;99635.63;5001758;28;20289;-85
2023/02/25 13:49:13;;;;;;;;;;;;;;;3.96;nan;99606.00;4995804;28;20004;-85
2023/02/25 13:51:58;;;;;;;;;;;;;;;4.13;nan;99612.38;4990780;28;19917;-85
2023/02/25 13:54:23;;;;;;;;;;;;;;;4.36;nan;99605.97;4992211;28;19976;-86
2023/02/25 13:56:57;;;;;;;;;;;;;;;4.57;nan;99616.31;4993204;28;20004;-86
2023/02/25 13:59:41;;;;;;;;;;;;;;;4.76;nan;99601.59;4993127;28;19957;-86
2023/02/25 14:02:25;;;;;;;;;;;;;;;4.93;nan;99605.31;5009636;28;20374;-87
2023/02/25 14:04:50;;;;;;;;;;;;;;;5.00;nan;99599.38;4984827;28;19921;-87
2023/02/25 14:07:31;;;;;;;;;;;;;;;4.95;nan;99604.22;4983566;28;19918;-87
2023/02/25 14:09:59;;;;;;;;;;;;;;;5.04;nan;99597.34;4995478;28;20298;-87
2023/02/25 14:12:25;;;;;;;;;;;;;;;5.05;nan;99602.44;4992121;28;19944;-87
2023/02/25 14:15:09;;;;;;;;;;;;;;;5.13;nan;99600.94;4993161;28;19925;-87
2023/02/25 14:17:41;;;;;;;;;;;;;;;5.24;nan;99598.13;4995366;28;20397;-87
2023/02/25 14:20:15;;;;;;;;;;;;;;;5.23;nan;99604.34;4996086;28;19985;-86
2023/02/25 14:22:50;;;;;;;;;;;;;;;5.27;nan;99608.34;4996536;28;19918;-86
2023/02/25 14:25:15;;;;;;;;;;;;;;;5.27;nan;99619.66;4997509;28;20309;-86
2023/02/25 14:27:47;;;;;;;;;;;;;;;5.33;nan;99613.03;4996829;28;19919;-87
2023/02/25 14:30:12;;;;;;;;;;;;;;;5.30;nan;99608.88;4996839;28;19925;-87
2023/02/25 14:32:53;;;;;;;;;;;;;;;5.35;nan;99610.28;5013925;28;19918;-87
2023/02/25 14:35:24;;;;;;;;;;;;;;;5.43;nan;99605.94;4996292;28;19956;-87
2023/02/25 14:37:53;;;;;;;;;;;;;;;5.53;nan;99604.16;4996259;28;19967;-87
2023/02/25 14:40:21;;;;;;;;;;;;;;;5.53;nan;99605.97;4995553;28;20173;-87
2023/02/25 14:42:54;;;;;;;;;;;;;;;5.59;nan;99613.25;4995710;28;20004;-87
2023/02/25 14:45:22;;;;;;;;;;;;;;;5.60;nan;99604.41;4995711;28;20021;-86
2023/02/25 14:48:07;;;;;;;;;;;;;;;5.65;nan;99611.84;4995392;28;19913;-87
2023/02/25 14:50:44;;;;;;;;;;;;;;;5.70;nan;99601.75;4998419;28;19921;-86
2023/02/25 14:53:19;;;;;;;;;;;;;;;5.68;nan;99609.78;4993877;28;19967;-87
2023/02/25 14:56:00;;;;;;;;;;;;;;;5.81;nan;99606.00;4994193;28;19918;-86
2023/02/25 14:58:25;;;;;;;;;;;;;;;5.94;nan;99611.78;5002967;28;25133;-86
2023/02/25 15:01:05;;;;;;;;;;;;;;;6.01;nan;99609.41;4991613;28;20311;-86
2023/02/25 15:03:49;;;;;;;;;;;;;;;6.11;nan;99616.25;4990329;28;19963;-85
2023/02/25 15:06:20;;;;;;;;;;;;;;;6.16;nan;99621.06;5011108;28;19925;-85
2023/02/25 15:08:45;;;;;;;;;;;;;;;6.11;nan;99618.06;5010279;28;19960;-86
2023/02/25 15:11:14;;;;;;;;;;;;;;;5.97;nan;99613.28;4994823;28;20297;-85
2023/02/25 15:13:39;;;;;;;;;;;;;;;5.94;nan;99619.66;4994111;28;20004;-85
2023/02/25 15:16:15;;;;;;;;;;;;;;;5.95;nan;99621.31;4991901;28;20008;-85
2023/02/25 15:18:54;;;;;;;;;;;;;;;6.04;nan;99625.69;5010181;28;20984;-85
2023/02/25 15:21:38;;;;;;;;;;;;;;;6.06;nan;99623.75;5009991;28;20494;-85
2023/02/25 15:24:09;;;;;;;;;;;;;;;5.94;nan;99622.28;4991395;28;19982;-85
2023/02/25 15:26:39;;;;;;;;;;;;;;;5.89;nan;99624.47;4995461;28;19917;-84
2023/02/25 15:29:17;;;;;;;;;;;;;;;5.82;nan;99634.72;5000928;28;19928;-85
2023/02/25 15:31:42;;;;;;;;;;;;;;;5.83;nan;99627.66;5015772;28;19925;-86
2023/02/25 15:34:19;;;;;;;;;;;;;;;5.78;nan;99628.09;4991420;28;20298;-86
2023/02/25 15:36:50;;;;;;;;;;;;;;;5.73;nan;99636.41;4991275;28;19926;-85
2023/02/25 15:39:36;;;;;;;;;;;;;;;5.71;nan;99642.75;4990813;28;20052;-86
2023/02/25 15:42:02;;;;;;;;;;;;;;;5.70;nan;99651.59;4994288;28;19952;-86
2023/02/25 15:44:31;;;;;;;;;;;;;;;5.79;nan;99663.03;4988171;28;19925;-86
2023/02/25 15:47:10;;;;;;;;;;;;;;;5.85;nan;99672.97;5005457;28;19917;-86
2023/02/25 15:49:37;;;;;;;;;;;;;;;5.60;nan;99693.59;5005165;28;20673;-85
2023/02/25 15:52:03;;;;;;;;;;;;;;;4.89;nan;99728.72;5010416;28;20397;-88
2023/02/25 15:54:28;;;;;;;;;;;;;;;4.23;nan;99729.19;4994161;28;19932;-85
2023/02/25 15:56:58;;;;;;;;;;;;;;;3.87;nan;99743.59;4994904;28;19917;-84
2023/02/25 15:59:44;;;;;;;;;;;;;;;3.59;nan;99764.16;4992383;28;19984;-84
2023/02/25 16:02:27;;;;;;;;;;;;;;;3.27;nan;99766.81;4993585;28;20331;-84
2023/02/25 16:04:55;;;;;;;;;;;;;;;2.95;nan;99785.84;4999704;28;19975;-84
2023/02/25 16:07:23;;;;;;;;;;;;;;;2.63;nan;99783.19;4997889;28;19945;-84
2023/02/25 16:09:52;;;;;;;;;;;;;;;2.38;nan;99780.78;4996748;28;20161;-85
2023/02/25 16:12:18;;;;;;;;;;;;;;;2.33;nan;99766.31;4993207;28;19924;-85
2023/02/25 16:14:43;;;;;;;;;;;;;;;2.29;nan;99762.28;4989348;28;19929;-84
2023/02/25 16:17:24;;;;;;;;;;;;;;;2.31;nan;99756.94;4989756;28;19924;-85
2023/02/25 16:19:54;;;;;;;;;;;;;;;2.35;nan;99768.81;4990927;28;19925;-85
2023/02/25 16:22:25;;;;;;;;;;;;;;;2.33;nan;99773.31;5008588;28;19917;-85
2023/02/25 16:24:51;;;;;;;;;;;;;;;2.31;nan;99770.84;4991057;28;19977;-85
2023/02/25 16:27:16;;;;;;;;;;;;;;;2.37;nan;99771.31;4993015;28;19933;-86
2023/02/25 16:29:48;;;;;;;;;;;;;;;2.43;nan;99779.50;4991867;28;19918;-85
2023/02/25 16:32:22;;;;;;;;;;;;;;;2.42;nan;99777.00;4990430;28;19917;-86
2023/02/25 16:35:06;;;;;;;;;;;;;;;2.43;nan;99778.66;4990364;28;19921;-86
2023/02/25 16:37:40;;;;;;;;;;;;;;;2.37;nan;99785.19;4990674;28;19917;-86
2023/02/25 16:40:11;;;;;;;;;;;;;;;2.31;nan;99789.09;4990280;28;19928;-86